CYED/YED METAR and TAF weather

Enter ICAO airport designator
Station Type Date Time Source
CYED METAR 2019/02/20 07:25 UTC NOAA

CYED 200725Z AUTO 31005KT 9SM OVC024 M04/M07 A2961


Station Type Date Time Source
CYED Decoded METAR 2019/02/20 07:25 UTC NOAA

Edmonton Namao Alta., Canada (CYED) 53-40N 113-28W 688M
Feb 20, 2019 - 02:25 AM EST / 2019.02.20 0725 UTC
Wind: from the NW (310 degrees) at 6 MPH (5 KT):0
Visibility: 9 mile(s):0
Sky conditions: overcast
Temperature: 24 F (-4 C)
Windchill: 17 F (-8 C):1
Dew Point: 19 F (-7 C)
Relative Humidity: 79%
Pressure (altimeter): 29.61 in. Hg (1002 hPa)
ob: CYED 200725Z AUTO 31005KT 9SM OVC024 M04/M07 A2961
cycle: 7

Station Type Date Time Source
CYED TAF 2019/02/20 06:33 UTC NOAA

TAF TAF CYED 200530Z 2006/2018 27005KT P6SM OVC030
TEMPO 2006/2008 5SM -SN
FM200800 VRB03KT P6SM FEW030 BKN100
FM201100 VRB03KT 6SM -SN OVC025
TEMPO 2011/2018 2SM -SN OVC008
BECMG 2016/2018 01008KT
RMK FCST BASED ON AUTO OBS 200600-201500Z. NXT FCST BY 201200Z


Example: see airport list